Time;durP1;ratioP1;P1;durP2;ratioP2;P2;SDS_P1;SDS_P2;PMS_P1;PMS_P2;Temp;Humidity;BMP_temperature;BMP_pressure;BME280_temperature;BME280_humidity;BME280_pressure;Samples;Min_cycle;Max_cycle;Signal;HPM_P1;HPM_P2
2021/05/29 00:01:26;;;;;;;7.87;7.17;;;7.00;99.90;;;;;;5015611;28;20452;-81
2021/05/29 00:04:04;;;;;;;8.77;7.40;;;7.00;99.90;;;;;;5018242;28;20454;-82
2021/05/29 00:06:44;;;;;;;15.33;7.10;;;6.90;99.90;;;;;;5038075;28;20468;-82
2021/05/29 00:09:19;;;;;;;7.90;7.20;;;7.40;99.90;;;;;;5056003;28;20449;-83
2021/05/29 00:11:54;;;;;;;7.83;7.13;;;7.40;99.90;;;;;;5043441;28;20469;-82
2021/05/29 00:14:36;;;;;;;7.70;6.30;;;7.40;99.90;;;;;;5041261;28;20499;-82
2021/05/29 00:17:12;;;;;;;7.50;6.80;;;7.40;99.90;;;;;;5038263;28;20450;-82
2021/05/29 00:19:49;;;;;;;8.00;6.70;;;7.40;99.90;;;;;;5037465;28;20481;-80
2021/05/29 00:22:28;;;;;;;7.57;6.90;;;7.40;99.90;;;;;;5039174;28;20469;-81
2021/05/29 00:25:04;;;;;;;7.10;6.40;;;7.30;99.90;;;;;;5018687;28;20905;-81
2021/05/29 00:27:39;;;;;;;6.70;5.90;;;7.20;99.90;;;;;;5039989;28;20464;-80
2021/05/29 00:30:15;;;;;;;8.23;6.97;;;7.00;99.90;;;;;;5041067;28;20471;-81
2021/05/29 00:32:56;;;;;;;10.00;6.80;;;7.10;99.90;;;;;;5022200;28;20504;-81
2021/05/29 00:35:32;;;;;;;7.57;6.77;;;7.10;99.90;;;;;;5041735;28;20448;-81
2021/05/29 00:38:09;;;;;;;7.63;6.93;;;6.90;99.90;;;;;;5011445;28;20451;-81
2021/05/29 00:40:44;;;;;;;6.47;5.97;;;6.90;99.90;;;;;;5044799;28;20487;-82
2021/05/29 00:43:26;;;;;;;7.97;7.27;;;7.00;99.90;;;;;;5039374;28;20467;-80
2021/05/29 00:46:09;;;;;;;7.90;7.10;;;7.00;99.90;;;;;;5040525;28;22223;-81
2021/05/29 00:48:45;;;;;;;8.20;7.40;;;7.00;99.90;;;;;;5041482;28;20464;-81
2021/05/29 00:51:21;;;;;;;7.03;6.33;;;6.90;99.90;;;;;;5044323;28;20462;-82
2021/05/29 00:54:07;;;;;;;8.47;7.77;;;6.90;99.90;;;;;;5022725;28;20459;-81
2021/05/29 00:56:43;;;;;;;7.80;7.10;;;6.90;99.90;;;;;;5039968;28;20452;-81
2021/05/29 00:59:19;;;;;;;9.67;7.20;;;6.80;99.90;;;;;;5043459;28;20458;-81
2021/05/29 01:02:02;;;;;;;7.40;6.80;;;6.80;99.90;;;;;;5040653;28;20486;-82
2021/05/29 01:04:37;;;;;;;8.10;7.30;;;6.80;99.90;;;;;;5040625;28;20486;-81
2021/05/29 01:07:17;;;;;;;8.43;7.73;;;6.80;99.90;;;;;;5051687;28;20493;-82
2021/05/29 01:09:52;;;;;;;8.60;7.77;;;6.70;99.90;;;;;;5052636;28;20980;-81
2021/05/29 01:12:26;;;;;;;7.90;7.20;;;6.70;99.90;;;;;;5045722;28;20528;-82
2021/05/29 01:15:22;;;;;;;9.73;8.03;;;6.60;99.90;;;;;;5045945;28;20999;-81
2021/05/29 01:17:57;;;;;;;11.43;8.80;;;6.50;99.90;;;;;;5043260;28;20455;-81
2021/05/29 01:20:32;;;;;;;8.87;8.00;;;6.40;99.90;;;;;;5039796;28;20474;-82
2021/05/29 01:23:13;;;;;;;8.90;8.00;;;6.40;99.90;;;;;;5038314;28;20454;-82
2021/05/29 01:25:50;;;;;;;9.53;8.53;;;6.30;99.90;;;;;;5039118;28;20454;-81
2021/05/29 01:28:29;;;;;;;9.80;8.80;;;6.40;99.90;;;;;;5042593;28;20795;-82
2021/05/29 01:31:08;;;;;;;8.80;7.90;;;6.30;99.90;;;;;;5031967;28;20465;-81
2021/05/29 01:33:55;;;;;;;9.40;8.50;;;6.30;99.90;;;;;;5022301;28;20483;-81
2021/05/29 01:36:30;;;;;;;9.87;8.80;;;6.20;99.90;;;;;;5036357;28;20480;-82
2021/05/29 01:39:07;;;;;;;10.90;9.57;;;6.30;99.90;;;;;;5038015;28;20489;-82
2021/05/29 01:41:49;;;;;;;9.37;8.47;;;6.40;99.90;;;;;;5023552;28;20457;-82
2021/05/29 01:44:24;;;;;;;9.60;7.93;;;6.20;99.90;;;;;;5044738;28;20559;-81
2021/05/29 01:46:59;;;;;;;9.70;8.70;;;6.20;99.90;;;;;;5043660;28;20467;-82
2021/05/29 01:49:32;;;;;;;9.50;8.40;;;6.20;99.90;;;;;;5024924;28;20469;-84
2021/05/29 01:52:09;;;;;;;9.63;8.83;;;6.20;99.90;;;;;;5043719;28;20467;-82
2021/05/29 01:54:44;;;;;;;9.70;8.70;;;6.20;99.90;;;;;;5038434;28;20466;-81
2021/05/29 01:57:20;;;;;;;12.20;8.90;;;6.20;99.90;;;;;;5039015;28;20471;-82
2021/05/29 02:00:00;;;;;;;9.17;8.27;;;6.20;99.90;;;;;;5040101;28;20513;-82
2021/05/29 02:02:35;;;;;;;9.83;8.83;;;6.10;99.90;;;;;;5039285;28;20478;-81
2021/05/29 02:05:23;;;;;;;14.93;9.90;;;6.00;99.90;;;;;;5050136;28;20444;-82
2021/05/29 02:08:08;;;;;;;11.50;9.00;;;5.90;99.90;;;;;;5045045;28;20453;-82
2021/05/29 02:10:46;;;;;;;9.53;8.67;;;5.90;99.90;;;;;;5055286;28;20507;-83
2021/05/29 02:13:28;;;;;;;10.40;8.93;;;5.80;99.90;;;;;;5044429;28;20478;-82
2021/05/29 02:16:03;;;;;;;9.60;8.70;;;5.70;99.90;;;;;;5053999;28;20456;-82
2021/05/29 02:18:40;;;;;;;10.40;8.97;;;6.00;99.90;;;;;;5049492;28;20439;-81
2021/05/29 02:21:23;;;;;;;10.13;9.10;;;5.90;99.90;;;;;;5023626;28;20472;-81
2021/05/29 02:24:05;;;;;;;10.23;8.67;;;5.80;99.90;;;;;;5030441;28;20461;-81
2021/05/29 02:26:41;;;;;;;10.23;9.10;;;5.70;99.90;;;;;;5043090;28;20455;-80
2021/05/29 02:29:16;;;;;;;10.20;9.20;;;6.00;99.90;;;;;;5033086;28;20478;-81
2021/05/29 02:31:50;;;;;;;11.70;9.37;;;5.90;99.90;;;;;;5037294;28;20457;-81
2021/05/29 02:34:25;;;;;;;11.67;9.93;;;5.80;99.90;;;;;;5039834;28;20446;-81
2021/05/29 02:37:05;;;;;;;12.10;10.90;;;5.80;99.90;;;;;;5039536;28;20499;-80
2021/05/29 02:39:39;;;;;;;13.80;12.03;;;5.70;99.90;;;;;;5039186;28;20546;-79
2021/05/29 02:42:15;;;;;;;11.70;10.57;;;5.80;99.90;;;;;;5031568;28;20450;-80
2021/05/29 02:44:55;;;;;;;12.60;11.30;;;5.70;99.90;;;;;;5035355;28;20444;-80
2021/05/29 02:47:30;;;;;;;11.70;10.60;;;5.70;99.90;;;;;;5037245;28;20540;-79
2021/05/29 02:50:05;;;;;;;13.23;11.20;;;5.60;99.90;;;;;;5031517;28;20462;-79
2021/05/29 02:52:41;;;;;;;14.30;12.50;;;5.40;99.90;;;;;;5035038;28;20452;-79
2021/05/29 02:55:22;;;;;;;11.57;10.47;;;5.70;99.90;;;;;;5033465;28;20455;-80
2021/05/29 02:58:00;;;;;;;12.53;11.33;;;5.50;99.90;;;;;;5031206;28;20442;-79
2021/05/29 03:00:38;;;;;;;13.13;11.93;;;5.50;99.90;;;;;;5038468;28;20469;-79
2021/05/29 03:03:13;;;;;;;12.60;11.43;;;5.50;99.90;;;;;;5050006;28;20776;-80
2021/05/29 03:05:55;;;;;;;13.30;11.90;;;5.40;99.90;;;;;;5040388;28;20527;-79
2021/05/29 03:08:30;;;;;;;14.00;12.60;;;5.40;99.90;;;;;;5033505;28;20456;-80
2021/05/29 03:11:06;;;;;;;13.73;11.80;;;5.30;99.90;;;;;;5037381;28;20461;-79
2021/05/29 03:13:42;;;;;;;11.53;10.43;;;5.30;99.90;;;;;;5036908;28;20442;-79
2021/05/29 03:16:18;;;;;;;12.90;11.47;;;5.20;99.90;;;;;;5041557;28;20819;-80
2021/05/29 03:18:53;;;;;;;12.30;11.10;;;5.30;99.90;;;;;;5030201;28;20458;-79
2021/05/29 03:21:28;;;;;;;13.30;12.00;;;5.30;99.90;;;;;;5036321;28;20441;-79
2021/05/29 03:24:03;;;;;;;12.20;10.27;;;5.30;99.90;;;;;;5035045;28;20450;-79
2021/05/29 03:26:37;;;;;;;13.47;10.97;;;5.40;99.90;;;;;;5033720;28;20545;-79
2021/05/29 03:29:14;;;;;;;13.70;11.53;;;5.30;99.90;;;;;;5031090;28;20471;-79
2021/05/29 03:31:48;;;;;;;13.17;11.87;;;5.40;99.90;;;;;;5035516;28;20968;-80
2021/05/29 03:34:23;;;;;;;12.80;11.60;;;5.40;99.90;;;;;;5036414;28;20455;-80
2021/05/29 03:37:00;;;;;;;14.10;11.07;;;5.40;99.90;;;;;;5011740;28;20466;-79
2021/05/29 03:39:34;;;;;;;16.27;12.00;;;5.30;99.90;;;;;;5037891;28;20476;-79
2021/05/29 03:42:12;;;;;;;12.50;10.97;;;5.30;99.90;;;;;;5032819;28;20459;-79
2021/05/29 03:44:48;;;;;;;12.00;10.83;;;5.40;99.90;;;;;;5035964;28;20445;-79
2021/05/29 03:47:23;;;;;;;12.00;10.90;;;5.40;99.90;;;;;;5032786;28;20447;-78
2021/05/29 03:49:58;;;;;;;12.67;11.37;;;5.50;99.90;;;;;;5026250;28;20512;-80
2021/05/29 03:52:33;;;;;;;14.10;12.00;;;5.60;99.90;;;;;;5032440;28;20474;-80
2021/05/29 03:55:08;;;;;;;12.07;10.90;;;5.60;99.90;;;;;;5038950;28;20433;-80
2021/05/29 03:57:42;;;;;;;11.23;10.17;;;5.60;99.90;;;;;;5036435;28;20444;-80
2021/05/29 04:00:21;;;;;;;12.50;10.10;;;5.70;99.90;;;;;;5040697;28;20445;-80
2021/05/29 04:03:11;;;;;;;11.23;9.90;;;5.70;99.90;;;;;;5041185;28;20452;-79
2021/05/29 04:05:54;;;;;;;10.90;9.80;;;5.90;99.90;;;;;;5038654;28;20498;-79
2021/05/29 04:08:32;;;;;;;10.50;9.50;;;6.50;99.90;;;;;;5018333;28;20455;-81
2021/05/29 04:11:06;;;;;;;12.50;9.33;;;9.30;99.90;;;;;;5036011;28;20549;-79
2021/05/29 04:13:41;;;;;;;8.90;8.00;;;11.70;90.80;;;;;;5036095;28;20443;-80
2021/05/29 04:16:17;;;;;;;8.10;7.30;;;12.40;80.30;;;;;;5041132;28;20455;-81
2021/05/29 04:18:51;;;;;;;8.20;7.40;;;13.50;77.20;;;;;;5037851;28;20456;-80
2021/05/29 04:21:26;;;;;;;7.50;6.80;;;14.30;74.60;;;;;;5034684;28;20459;-80
2021/05/29 04:24:01;;;;;;;7.10;6.40;;;14.20;72.50;;;;;;5045212;28;20464;-82
2021/05/29 04:26:41;;;;;;;6.23;5.73;;;13.70;72.20;;;;;;5039248;28;20487;-79
2021/05/29 04:29:18;;;;;;;6.10;5.50;;;12.80;72.40;;;;;;5042629;28;20466;-80
2021/05/29 04:31:55;;;;;;;6.77;5.40;;;13.00;72.30;;;;;;5037538;28;20498;-81
2021/05/29 04:34:31;;;;;;;5.40;5.00;;;13.80;73.00;;;;;;5021992;28;20453;-81
2021/05/29 04:37:06;;;;;;;5.77;5.27;;;14.60;71.60;;;;;;5038766;28;20480;-80
2021/05/29 04:39:41;;;;;;;5.70;5.20;;;14.50;68.70;;;;;;5039392;28;20468;-81
2021/05/29 04:42:16;;;;;;;5.87;5.37;;;14.90;69.70;;;;;;5033059;28;20444;-80
2021/05/29 04:44:51;;;;;;;5.50;5.10;;;13.40;70.30;;;;;;5040017;28;20500;-81
2021/05/29 04:47:27;;;;;;;6.30;5.70;;;13.50;70.90;;;;;;5034884;28;22124;-79
2021/05/29 04:49:58;;;;;;;6.67;6.00;;;11.10;71.80;;;;;;5038000;28;20532;-79
2021/05/29 04:52:33;;;;;;;8.90;5.87;;;10.90;77.80;;;;;;5034535;28;20473;-80
2021/05/29 04:55:10;;;;;;;6.47;5.87;;;12.70;72.90;;;;;;5041217;28;20456;-80
2021/05/29 04:57:46;;;;;;;6.57;5.97;;;12.10;72.80;;;;;;5030245;28;20469;-79
2021/05/29 05:00:23;;;;;;;5.43;5.03;;;13.60;72.90;;;;;;5035178;28;20452;-79
2021/05/29 05:02:59;;;;;;;6.10;5.60;;;15.50;70.50;;;;;;5035585;28;20545;-79
2021/05/29 05:05:33;;;;;;;6.07;5.57;;;15.40;67.80;;;;;;5030996;28;20977;-79
2021/05/29 05:08:08;;;;;;;7.77;5.63;;;16.60;66.80;;;;;;5033710;28;20454;-80
2021/05/29 05:10:44;;;;;;;7.23;6.53;;;14.80;66.30;;;;;;5040126;28;20485;-79
2021/05/29 05:13:19;;;;;;;6.93;6.33;;;13.50;66.70;;;;;;5031946;28;20529;-80
2021/05/29 05:15:53;;;;;;;6.03;5.53;;;13.10;68.60;;;;;;5037964;28;20883;-80
2021/05/29 05:18:29;;;;;;;5.93;5.33;;;15.00;68.30;;;;;;5034462;28;20538;-80
2021/05/29 05:21:01;;;;;;;8.23;5.87;;;14.10;65.70;;;;;;5035752;28;20828;-80
2021/05/29 05:23:37;;;;;;;6.87;5.50;;;13.00;66.90;;;;;;5015109;28;20543;-80
2021/05/29 05:26:12;;;;;;;6.23;5.57;;;12.50;68.30;;;;;;5040480;28;20457;-79
2021/05/29 05:28:46;;;;;;;6.20;5.60;;;12.10;69.00;;;;;;5042933;28;20458;-80
2021/05/29 05:31:21;;;;;;;6.07;5.47;;;11.40;71.50;;;;;;5038000;28;20453;-81
2021/05/29 05:34:08;;;;;;;5.93;5.43;;;11.10;73.30;;;;;;5032338;28;20471;-80
2021/05/29 05:36:49;;;;;;;6.40;5.80;;;11.60;73.70;;;;;;5030772;28;20483;-80
2021/05/29 05:39:24;;;;;;;6.60;6.03;;;12.60;72.10;;;;;;5044418;28;20478;-80
2021/05/29 05:41:59;;;;;;;6.97;6.20;;;12.30;71.20;;;;;;5039909;28;20454;-80
2021/05/29 05:44:33;;;;;;;6.37;5.80;;;12.60;70.80;;;;;;5038648;28;21079;-79
2021/05/29 05:47:09;;;;;;;9.00;6.73;;;13.70;71.20;;;;;;5040359;28;20445;-81
2021/05/29 05:49:44;;;;;;;9.40;6.33;;;14.40;68.80;;;;;;5044409;28;20474;-82
2021/05/29 05:52:18;;;;;;;6.90;5.83;;;14.80;67.60;;;;;;5052854;28;20457;-81
2021/05/29 05:55:09;;;;;;;9.40;5.37;;;14.60;67.20;;;;;;5049935;28;20519;-82
2021/05/29 05:57:41;;;;;;;5.90;5.27;;;15.50;67.10;;;;;;5052145;28;20602;-81
2021/05/29 06:00:20;;;;;;;5.90;5.40;;;18.90;64.50;;;;;;5048668;28;20456;-82
2021/05/29 06:03:01;;;;;;;7.23;5.73;;;17.60;59.30;;;;;;5039897;28;20447;-80
2021/05/29 06:05:39;;;;;;;5.87;5.33;;;16.30;60.50;;;;;;5039643;28;20844;-80
2021/05/29 06:08:14;;;;;;;6.00;4.90;;;15.90;61.20;;;;;;5038893;28;20451;-80
2021/05/29 06:10:55;;;;;;;7.93;5.97;;;15.60;61.30;;;;;;5042307;28;20465;-81
2021/05/29 06:19:22;;;;;;;6.63;5.33;;;14.90;61.40;;;;;;5037409;28;20464;-83
2021/05/29 06:21:59;;;;;;;5.83;5.33;;;14.70;62.20;;;;;;5038980;28;20453;-82
2021/05/29 06:24:37;;;;;;;8.03;4.80;;;13.30;63.60;;;;;;5035539;28;20449;-81
2021/05/29 06:27:12;;;;;;;5.70;5.30;;;12.20;65.40;;;;;;5033102;28;20454;-82
2021/05/29 06:29:47;;;;;;;8.50;5.00;;;11.60;68.70;;;;;;5037888;28;20486;-81
2021/05/29 06:32:27;;;;;;;6.87;6.27;;;11.20;72.20;;;;;;5040696;28;20477;-81
2021/05/29 06:35:02;;;;;;;7.20;6.37;;;11.30;74.00;;;;;;5038528;28;20444;-79
2021/05/29 06:37:38;;;;;;;6.20;5.60;;;11.30;73.70;;;;;;5041998;28;20442;-83
2021/05/29 06:40:24;;;;;;;5.50;5.10;;;11.80;73.10;;;;;;5034913;28;20509;-80
2021/05/29 06:42:59;;;;;;;5.03;4.73;;;11.90;72.50;;;;;;5045198;28;20450;-81
2021/05/29 06:45:34;;;;;;;5.80;5.30;;;11.90;73.40;;;;;;5045735;28;20463;-81
2021/05/29 06:48:12;;;;;;;6.63;5.47;;;11.70;73.30;;;;;;5032310;28;21200;-81
2021/05/29 06:50:56;;;;;;;5.83;5.20;;;11.40;74.60;;;;;;5037053;28;20621;-81
2021/05/29 06:53:36;;;;;;;5.43;4.93;;;11.60;75.00;;;;;;5039777;28;20461;-80
2021/05/29 06:59:01;;;;;;;6.23;5.80;;;11.80;75.40;;;;;;5035115;28;20457;-80
2021/05/29 07:01:36;;;;;;;5.47;5.07;;;11.90;74.80;;;;;;5036064;28;20503;-80
2021/05/29 07:04:08;;;;;;;7.50;5.27;;;12.10;74.50;;;;;;5037617;28;20482;-79
2021/05/29 07:06:43;;;;;;;6.17;5.67;;;12.10;74.10;;;;;;5035343;28;20476;-79
2021/05/29 07:09:20;;;;;;;5.37;4.87;;;12.50;74.20;;;;;;5037756;28;20464;-79
2021/05/29 07:11:59;;;;;;;5.40;4.90;;;12.40;73.40;;;;;;5038060;28;20437;-79
2021/05/29 07:14:34;;;;;;;4.53;4.13;;;12.30;73.90;;;;;;5037074;28;20535;-80
2021/05/29 07:17:09;;;;;;;5.40;4.40;;;12.20;73.30;;;;;;5040935;28;20547;-80
2021/05/29 07:19:44;;;;;;;4.80;4.40;;;12.30;74.00;;;;;;5037688;28;20446;-80
2021/05/29 07:22:19;;;;;;;4.03;3.73;;;12.30;73.30;;;;;;5039146;28;20856;-79
2021/05/29 07:24:54;;;;;;;4.20;3.90;;;12.40;73.10;;;;;;5036869;28;20446;-79
2021/05/29 07:27:29;;;;;;;4.00;3.60;;;12.60;73.50;;;;;;5043884;28;20473;-80
2021/05/29 07:30:07;;;;;;;4.60;4.20;;;13.10;72.80;;;;;;5037680;28;20561;-80
2021/05/29 07:32:42;;;;;;;4.60;4.20;;;13.00;72.60;;;;;;5027540;28;20454;-78
2021/05/29 07:35:18;;;;;;;5.07;4.63;;;13.10;72.70;;;;;;5037954;28;20512;-79
2021/05/29 07:37:53;;;;;;;3.97;3.57;;;13.30;71.60;;;;;;5034684;28;20453;-79
2021/05/29 07:40:29;;;;;;;5.10;4.20;;;13.20;71.30;;;;;;5036132;28;21018;-80
2021/05/29 07:43:04;;;;;;;4.93;3.63;;;13.40;71.20;;;;;;5037712;28;20520;-77
2021/05/29 07:45:38;;;;;;;4.07;3.77;;;13.50;71.00;;;;;;5036558;28;20457;-80
2021/05/29 07:48:13;;;;;;;3.50;3.20;;;13.40;69.80;;;;;;5041722;28;20465;-80
2021/05/29 07:53:39;;;;;;;3.40;3.10;;;14.50;68.50;;;;;;5045962;28;20492;-83
2021/05/29 07:56:16;;;;;;;2.80;2.40;;;15.20;66.70;;;;;;5036852;28;20451;-80
2021/05/29 07:58:51;;;;;;;2.30;2.10;;;14.70;64.70;;;;;;5036433;28;20491;-80
2021/05/29 08:01:26;;;;;;;2.50;2.30;;;14.50;64.90;;;;;;5031954;28;20457;-81
2021/05/29 08:04:01;;;;;;;2.67;1.90;;;14.40;64.10;;;;;;5037304;28;20533;-80
2021/05/29 08:06:38;;;;;;;2.60;2.27;;;13.80;64.00;;;;;;5032846;28;20489;-79
2021/05/29 08:09:21;;;;;;;2.20;2.00;;;14.10;64.40;;;;;;5033297;28;20486;-79
2021/05/29 08:11:57;;;;;;;3.43;2.20;;;14.30;63.00;;;;;;5031244;28;20471;-79
2021/05/29 08:14:31;;;;;;;6.43;2.53;;;14.20;61.90;;;;;;5038987;28;20456;-79
2021/05/29 08:17:13;;;;;;;2.17;1.80;;;14.50;62.00;;;;;;5038322;28;20526;-81
2021/05/29 08:19:48;;;;;;;2.60;2.07;;;14.80;61.30;;;;;;5044122;28;20442;-80
2021/05/29 08:22:23;;;;;;;2.30;1.90;;;14.90;61.40;;;;;;5032001;28;20498;-81
2021/05/29 08:24:59;;;;;;;1.70;1.60;;;14.80;60.40;;;;;;5044702;28;21055;-81
2021/05/29 08:27:35;;;;;;;2.87;1.93;;;14.20;60.50;;;;;;5040864;28;20453;-80
2021/05/29 08:30:11;;;;;;;2.63;2.07;;;14.40;60.90;;;;;;5038352;28;20498;-81
2021/05/29 08:32:45;;;;;;;2.70;1.60;;;14.60;60.40;;;;;;5056420;28;20454;-82
2021/05/29 08:35:17;;;;;;;5.67;2.43;;;14.80;59.50;;;;;;5051233;28;20458;-81
2021/05/29 08:37:53;;;;;;;2.00;1.50;;;14.80;58.90;;;;;;5046936;28;20477;-81
2021/05/29 08:40:28;;;;;;;1.70;1.60;;;15.20;58.60;;;;;;5034342;28;20475;-77
2021/05/29 08:43:04;;;;;;;2.40;1.90;;;15.20;57.00;;;;;;5032229;28;20869;-77
2021/05/29 08:45:39;;;;;;;1.53;1.43;;;15.20;56.40;;;;;;5034903;28;20459;-78
2021/05/29 08:48:14;;;;;;;1.40;1.30;;;15.80;56.60;;;;;;5038976;28;20450;-78
2021/05/29 08:53:36;;;;;;;2.00;1.43;;;16.90;53.90;;;;;;5030224;28;20460;-79
2021/05/29 08:56:11;;;;;;;3.80;1.30;;;16.70;54.40;;;;;;5043658;28;20457;-80
2021/05/29 08:58:48;;;;;;;3.23;1.63;;;17.00;54.50;;;;;;5035370;28;20972;-80
2021/05/29 09:01:23;;;;;;;2.20;1.80;;;16.50;54.20;;;;;;5042937;28;20449;-80
2021/05/29 09:04:01;;;;;;;1.30;1.20;;;16.50;54.30;;;;;;5033848;28;20541;-80
2021/05/29 09:06:48;;;;;;;1.40;1.30;;;16.60;53.20;;;;;;5041951;28;20444;-82
2021/05/29 09:09:26;;;;;;;2.17;1.70;;;16.30;53.40;;;;;;5036502;28;20453;-79
2021/05/29 09:12:10;;;;;;;2.57;1.40;;;16.00;53.70;;;;;;5041442;28;20456;-82
2021/05/29 09:14:46;;;;;;;1.73;1.33;;;16.30;54.30;;;;;;5046477;28;20462;-82
2021/05/29 09:17:24;;;;;;;2.10;1.30;;;16.40;54.30;;;;;;5045034;28;20492;-82
2021/05/29 09:20:08;;;;;;;2.67;1.67;;;16.80;54.30;;;;;;5044672;28;20543;-83
2021/05/29 09:22:45;;;;;;;2.03;1.37;;;16.80;54.00;;;;;;5043017;28;20512;-83
2021/05/29 09:25:23;;;;;;;2.60;1.60;;;16.50;53.30;;;;;;5047270;28;20473;-82
2021/05/29 09:28:11;;;;;;;1.10;1.10;;;16.40;53.30;;;;;;5046859;28;20458;-82
2021/05/29 09:30:51;;;;;;;1.53;1.43;;;17.60;53.80;;;;;;5048644;28;20486;-83
2021/05/29 09:33:30;;;;;;;4.57;4.17;;;17.30;52.40;;;;;;5054055;28;20458;-84
2021/05/29 09:36:10;;;;;;;2.30;1.77;;;17.40;52.60;;;;;;5060207;28;20455;-82
2021/05/29 09:38:47;;;;;;;2.17;1.47;;;16.70;52.40;;;;;;5053916;28;20520;-84
2021/05/29 09:41:35;;;;;;;1.53;1.40;;;16.40;52.40;;;;;;5054538;28;20464;-83
2021/05/29 09:44:12;;;;;;;1.70;1.40;;;16.20;52.90;;;;;;5055998;28;20472;-82
2021/05/29 09:47:04;;;;;;;3.33;1.70;;;15.80;53.30;;;;;;5049060;28;20940;-81
2021/05/29 09:49:58;;;;;;;1.73;1.40;;;15.80;53.70;;;;;;5047176;28;20528;-82
2021/05/29 09:52:36;;;;;;;1.30;1.20;;;16.10;54.20;;;;;;5043153;28;20564;-80
2021/05/29 09:55:14;;;;;;;1.73;1.50;;;16.20;53.90;;;;;;5043881;28;20547;-84
2021/05/29 09:58:00;;;;;;;1.70;1.10;;;16.60;54.00;;;;;;5043800;28;20445;-80
2021/05/29 10:00:46;;;;;;;3.10;1.30;;;16.60;53.60;;;;;;5038866;28;20670;-79
2021/05/29 10:03:22;;;;;;;2.23;1.50;;;16.80;53.40;;;;;;5032288;28;20552;-80
2021/05/29 10:05:56;;;;;;;1.40;1.30;;;17.80;52.50;;;;;;5040719;28;20455;-78
2021/05/29 10:08:32;;;;;;;1.20;1.10;;;17.60;52.10;;;;;;5038402;28;20474;-82
2021/05/29 10:11:07;;;;;;;1.20;1.10;;;17.70;50.70;;;;;;5041758;28;20476;-80
2021/05/29 10:13:51;;;;;;;1.53;0.87;;;18.10;50.90;;;;;;5041057;28;20456;-83
2021/05/29 10:16:31;;;;;;;0.90;0.90;;;18.20;49.80;;;;;;5042618;28;20465;-80
2021/05/29 10:19:10;;;;;;;0.80;0.80;;;17.40;49.00;;;;;;5042490;28;20863;-80
2021/05/29 10:21:45;;;;;;;0.83;0.70;;;18.10;49.50;;;;;;5027647;28;20503;-80
2021/05/29 10:24:21;;;;;;;1.10;0.80;;;17.70;46.90;;;;;;5042786;28;20449;-79
2021/05/29 10:26:57;;;;;;;1.73;0.87;;;18.20;47.50;;;;;;5023245;28;20540;-80
2021/05/29 10:29:45;;;;;;;1.60;1.50;;;17.50;48.50;;;;;;5033889;28;20460;-82
2021/05/29 10:32:21;;;;;;;1.87;1.70;;;16.60;50.50;;;;;;5039778;28;20445;-81
2021/05/29 10:35:04;;;;;;;1.90;1.80;;;16.40;51.60;;;;;;5032971;28;20498;-80
2021/05/29 10:37:41;;;;;;;1.70;1.47;;;16.60;52.90;;;;;;5033519;28;20460;-80
2021/05/29 10:40:22;;;;;;;2.53;1.80;;;16.40;53.50;;;;;;5023394;28;20462;-81
2021/05/29 10:43:14;;;;;;;2.03;1.50;;;16.10;57.80;;;;;;5040718;28;20480;-79
2021/05/29 10:46:10;;;;;;;3.60;1.90;;;16.00;56.70;;;;;;5038518;28;20455;-81
2021/05/29 10:49:01;;;;;;;5.43;1.50;;;16.60;56.90;;;;;;5041069;28;20518;-81
2021/05/29 10:51:43;;;;;;;1.50;1.40;;;16.20;54.60;;;;;;5036983;28;20475;-80
2021/05/29 10:54:20;;;;;;;1.40;1.30;;;16.00;54.40;;;;;;5037435;28;20462;-81
2021/05/29 10:57:02;;;;;;;8.03;1.33;;;16.30;54.60;;;;;;5036683;28;20448;-81
2021/05/29 10:59:43;;;;;;;1.70;1.20;;;17.10;54.00;;;;;;5034956;28;20483;-80
2021/05/29 11:02:26;;;;;;;2.33;1.50;;;17.50;53.00;;;;;;5040557;28;20447;-81
2021/05/29 11:05:40;;;;;;;4.50;1.90;;;17.50;54.10;;;;;;5041598;28;20445;-81
2021/05/29 11:08:43;;;;;;;1.57;1.20;;;16.50;53.10;;;;;;5030780;28;20536;-81
2021/05/29 11:11:59;;;;;;;1.53;1.43;;;16.40;53.30;;;;;;5041083;28;20513;-79
2021/05/29 11:14:48;;;;;;;1.30;1.20;;;16.30;53.10;;;;;;5012199;28;20561;-83
2021/05/29 11:17:26;;;;;;;2.00;1.30;;;16.60;52.80;;;;;;5036192;28;20455;-80
2021/05/29 11:20:22;;;;;;;4.80;1.30;;;16.30;52.40;;;;;;5038078;28;20506;-82
2021/05/29 11:22:57;;;;;;;1.40;1.30;;;16.20;52.10;;;;;;5032974;28;21600;-80
2021/05/29 11:25:29;;;;;;;1.03;1.00;;;16.60;51.70;;;;;;5037646;28;20459;-82
2021/05/29 11:28:05;;;;;;;1.20;1.10;;;17.70;51.70;;;;;;5031174;28;20456;-82
2021/05/29 11:30:41;;;;;;;2.17;1.10;;;17.40;50.80;;;;;;5036193;28;20579;-80
2021/05/29 11:33:37;;;;;;;1.20;1.03;;;17.80;49.20;;;;;;5037488;28;20441;-80
2021/05/29 11:36:12;;;;;;;2.20;1.50;;;18.10;51.50;;;;;;5040555;28;20464;-81
2021/05/29 11:38:49;;;;;;;2.60;1.30;;;19.70;51.00;;;;;;5030562;28;20481;-81
2021/05/29 11:41:37;;;;;;;1.73;1.30;;;19.10;49.20;;;;;;5021792;28;20488;-80
2021/05/29 11:44:29;;;;;;;1.93;1.40;;;18.10;49.00;;;;;;5036429;28;20449;-81
2021/05/29 11:47:08;;;;;;;1.40;1.23;;;18.00;49.00;;;;;;5046269;28;20462;-80
2021/05/29 11:49:50;;;;;;;1.20;1.10;;;17.40;49.00;;;;;;5036858;28;20565;-81
2021/05/29 11:52:25;;;;;;;1.43;1.17;;;17.30;49.30;;;;;;5041046;28;20461;-80
2021/05/29 11:55:02;;;;;;;1.87;1.13;;;17.00;48.80;;;;;;5039900;28;20877;-80
2021/05/29 11:58:01;;;;;;;2.10;1.20;;;16.30;49.30;;;;;;5040183;28;20451;-80
2021/05/29 12:00:37;;;;;;;1.33;1.23;;;16.60;49.70;;;;;;5036484;28;20452;-80
2021/05/29 12:03:17;;;;;;;1.40;1.10;;;16.40;50.20;;;;;;5039253;28;20457;-80
2021/05/29 12:05:51;;;;;;;1.13;1.03;;;17.00;49.20;;;;;;5037191;28;20466;-80
2021/05/29 12:08:27;;;;;;;1.00;1.00;;;17.00;50.00;;;;;;5041564;28;20482;-80
2021/05/29 12:11:03;;;;;;;1.93;1.30;;;16.90;50.30;;;;;;5035405;28;20542;-81
2021/05/29 12:13:40;;;;;;;1.47;1.27;;;16.90;49.90;;;;;;5040801;28;20509;-82
2021/05/29 12:16:26;;;;;;;2.50;1.37;;;16.80;50.20;;;;;;5025747;28;20748;-81
2021/05/29 12:19:01;;;;;;;1.43;1.00;;;16.90;48.60;;;;;;5048213;28;20436;-82
2021/05/29 12:22:01;;;;;;;1.13;1.03;;;16.40;49.20;;;;;;5061966;28;20458;-82
2021/05/29 12:24:49;;;;;;;2.30;1.10;;;16.30;49.50;;;;;;5053967;28;20455;-81
2021/05/29 12:27:27;;;;;;;2.07;1.50;;;16.70;49.40;;;;;;5042525;28;20459;-81
2021/05/29 12:30:13;;;;;;;1.10;1.00;;;17.30;48.70;;;;;;5044204;28;20468;-80
2021/05/29 12:35:41;;;;;;;2.47;1.00;;;16.70;47.40;;;;;;5038648;28;20507;-81
2021/05/29 12:38:20;;;;;;;2.10;0.90;;;16.70;47.50;;;;;;5047508;28;20448;-80
2021/05/29 12:41:13;;;;;;;1.60;0.80;;;16.80;47.50;;;;;;5040808;28;20461;-81
2021/05/29 12:44:07;;;;;;;1.30;0.80;;;17.20;46.30;;;;;;5044331;28;20483;-80
2021/05/29 12:46:43;;;;;;;1.23;0.93;;;17.30;46.60;;;;;;5024771;28;20477;-82
2021/05/29 12:49:25;;;;;;;3.03;1.20;;;17.50;46.10;;;;;;5041088;28;20487;-83
2021/05/29 12:52:08;;;;;;;1.93;1.20;;;17.40;46.20;;;;;;5032587;28;20471;-81
2021/05/29 12:54:51;;;;;;;1.60;1.10;;;17.80;46.80;;;;;;5045805;28;20448;-83
2021/05/29 12:57:38;;;;;;;1.00;0.83;;;17.60;45.80;;;;;;5041577;28;20451;-80
2021/05/29 13:00:45;;;;;;;0.80;0.70;;;17.60;45.80;;;;;;5039842;28;20454;-81
2021/05/29 13:09:27;;;;;;;1.40;0.80;;;19.30;45.40;;;;;;5050936;28;20451;-81
2021/05/29 13:12:11;;;;;;;4.20;1.00;;;18.60;43.70;;;;;;5033708;28;20426;-83
2021/05/29 13:14:48;;;;;;;1.03;0.90;;;18.10;44.10;;;;;;5061197;28;20513;-82
2021/05/29 13:17:34;;;;;;;1.53;1.00;;;18.20;44.70;;;;;;5057234;28;20450;-83
2021/05/29 13:20:16;;;;;;;2.57;1.20;;;18.10;45.00;;;;;;5052416;28;20451;-83
2021/05/29 13:23:04;;;;;;;1.03;0.90;;;18.30;45.50;;;;;;5050393;28;20968;-79
2021/05/29 13:25:48;;;;;;;1.83;0.93;;;18.50;45.00;;;;;;5041861;28;20451;-80
2021/05/29 13:28:34;;;;;;;2.77;0.97;;;18.20;45.10;;;;;;5040039;28;20468;-81
2021/05/29 13:31:08;;;;;;;1.63;1.30;;;18.20;45.50;;;;;;5045850;28;20485;-79
2021/05/29 13:33:44;;;;;;;1.30;1.20;;;17.50;47.30;;;;;;5038282;28;20449;-79
2021/05/29 13:36:24;;;;;;;1.20;1.03;;;17.50;48.20;;;;;;5045464;28;20504;-80
2021/05/29 13:39:03;;;;;;;1.50;1.00;;;17.30;48.90;;;;;;5026847;28;20493;-79
2021/05/29 13:41:38;;;;;;;2.07;1.20;;;17.70;48.60;;;;;;5041958;28;20456;-80
2021/05/29 13:44:13;;;;;;;1.57;1.23;;;17.50;48.60;;;;;;5039765;28;20458;-82
2021/05/29 13:46:47;;;;;;;1.63;0.80;;;18.00;47.70;;;;;;5041016;28;20453;-80
2021/05/29 13:49:22;;;;;;;1.33;1.20;;;18.30;47.60;;;;;;5032555;28;20450;-79
2021/05/29 13:52:05;;;;;;;2.13;1.10;;;19.10;47.90;;;;;;5042911;28;20485;-80
2021/05/29 13:54:41;;;;;;;2.00;0.90;;;19.30;47.60;;;;;;5042918;28;20461;-80
2021/05/29 13:57:17;;;;;;;1.27;1.10;;;18.80;45.90;;;;;;5033102;28;20506;-80
2021/05/29 14:00:01;;;;;;;1.57;1.17;;;17.80;45.60;;;;;;5034702;28;20857;-80
2021/05/29 14:02:36;;;;;;;1.00;0.90;;;17.70;46.90;;;;;;5042098;28;20464;-81
2021/05/29 14:05:11;;;;;;;1.90;1.77;;;17.40;47.00;;;;;;5036081;28;20514;-80
2021/05/29 14:07:47;;;;;;;1.20;1.10;;;17.60;47.60;;;;;;5036798;28;20486;-80
2021/05/29 14:10:31;;;;;;;1.20;1.10;;;17.30;47.40;;;;;;5037487;28;20485;-80